createdAt,value
2023-03-17T00:03:30.368Z,100755.40
2023-03-17T00:07:34.701Z,100756.00
2023-03-17T00:12:14.562Z,100754.00
2023-03-17T00:17:00.891Z,100764.40
2023-03-17T00:20:20.333Z,100764.60
2023-03-17T00:24:01.012Z,100755.40
2023-03-17T00:28:01.906Z,100770.60
2023-03-17T01:23:43.126Z,100704.00
2023-03-17T01:27:49.739Z,100691.40
2023-03-17T01:42:55.614Z,100665.80
2023-03-17T02:36:22.955Z,100653.00
2023-03-17T02:43:33.842Z,100659.40
2023-03-17T02:46:51.205Z,100654.20
2023-03-17T02:50:09.985Z,100645.40
2023-03-17T02:54:06.980Z,100647.00
2023-03-17T02:57:36.977Z,100644.60
2023-03-17T03:12:20.926Z,100634.80
2023-03-17T03:27:45.673Z,100626.00
2023-03-17T03:40:11.192Z,100621.60
2023-03-17T03:44:09.951Z,100612.80
2023-03-17T03:50:33.150Z,100610.40
2023-03-17T03:54:09.605Z,100611.20
2023-03-17T03:57:40.316Z,100616.80
2023-03-17T04:01:14.632Z,100611.60
2023-03-17T05:07:27.227Z,100600.00
2023-03-17T05:40:30.289Z,100588.40
2023-03-17T05:44:07.793Z,100591.20
2023-03-17T05:47:52.010Z,100595.20
2023-03-17T05:54:13.988Z,100597.00
2023-03-17T05:58:15.402Z,100592.60
2023-03-17T06:00:57.799Z,100591.20
2023-03-17T06:03:25.171Z,100590.00
2023-03-17T06:05:52.622Z,100582.40
2023-03-17T06:11:33.427Z,100576.00
2023-03-17T06:14:01.878Z,100576.20
2023-03-17T06:16:32.517Z,100569.20
2023-03-17T06:18:59.907Z,100573.80
2023-03-17T06:21:27.616Z,100570.60
2023-03-17T06:23:54.703Z,100565.40
2023-03-17T06:26:37.431Z,100566.40
2023-03-17T06:29:09.252Z,100567.40
2023-03-17T06:31:51.310Z,100564.40
2023-03-17T06:34:20.625Z,100559.20
2023-03-17T06:36:48.980Z,100553.80
2023-03-17T06:39:17.655Z,100556.80
2023-03-17T06:41:45.005Z,100553.60
2023-03-17T06:44:12.730Z,100541.20
2023-03-17T06:46:40.808Z,100545.40
2023-03-17T06:54:39.711Z,100533.60
2023-03-17T06:57:22.763Z,100537.80
2023-03-17T06:59:52.159Z,100538.60
2023-03-17T07:05:05.028Z,100517.80
2023-03-17T07:07:35.885Z,100522.60
2023-03-17T07:10:05.700Z,100528.20
2023-03-17T07:12:33.663Z,100527.80
2023-03-17T07:15:01.123Z,100533.20
2023-03-17T07:17:29.838Z,100532.20
2023-03-17T07:19:57.311Z,100529.20
2023-03-17T07:22:25.842Z,100530.60
2023-03-17T07:24:53.218Z,100524.20
2023-03-17T07:27:37.129Z,100521.20
2023-03-17T07:30:08.317Z,100514.60
2023-03-17T07:32:37.312Z,100510.40
2023-03-17T07:35:06.874Z,100509.60
2023-03-17T07:37:36.548Z,100516.00
2023-03-17T07:40:07.181Z,100506.20
2023-03-17T07:42:35.741Z,100509.20
2023-03-17T07:45:07.460Z,100506.60
2023-03-17T07:47:39.061Z,100504.80
2023-03-17T07:50:12.185Z,100496.40
2023-03-17T07:52:41.854Z,100491.60
2023-03-17T07:55:12.921Z,100494.40
2023-03-17T07:57:41.185Z,100487.20
2023-03-17T08:00:10.313Z,100486.60
2023-03-17T08:02:37.833Z,100487.20
2023-03-17T08:05:07.221Z,100483.20
2023-03-17T08:07:36.964Z,100491.80
2023-03-17T08:10:07.160Z,100493.20
2023-03-17T08:12:35.953Z,100488.80
2023-03-17T08:15:04.785Z,100480.60
2023-03-17T08:17:32.234Z,100464.00
2023-03-17T08:20:00.516Z,100460.00
2023-03-17T08:22:29.355Z,100463.60
2023-03-17T08:24:56.372Z,100467.60
2023-03-17T08:27:23.796Z,100463.40
2023-03-17T08:29:51.272Z,100459.00
2023-03-17T08:32:18.452Z,100457.20
2023-03-17T08:34:45.882Z,100456.80
2023-03-17T08:37:13.660Z,100453.80
2023-03-17T08:39:41.027Z,100450.20
2023-03-17T08:42:08.575Z,100450.60
2023-03-17T08:44:36.015Z,100451.80
2023-03-17T08:47:04.295Z,100448.60
2023-03-17T08:49:34.320Z,100432.40
2023-03-17T08:52:16.715Z,100444.40
2023-03-17T08:54:43.680Z,100449.40
2023-03-17T08:57:11.042Z,100442.80
2023-03-17T08:59:38.901Z,100454.40
2023-03-17T09:02:06.981Z,100449.20
2023-03-17T09:04:37.711Z,100449.00
2023-03-17T09:07:09.542Z,100446.20
2023-03-17T09:09:37.318Z,100441.20
2023-03-17T09:12:07.084Z,100438.60
2023-03-17T09:14:43.450Z,100447.20
2023-03-17T09:17:13.258Z,100455.60
2023-03-17T09:19:41.117Z,100470.20
2023-03-17T09:22:13.444Z,100472.80
2023-03-17T09:27:21.939Z,100457.60
2023-03-17T09:29:48.725Z,100442.60
2023-03-17T09:32:15.821Z,100431.60
2023-03-17T09:37:24.299Z,100438.60
2023-03-17T09:39:51.670Z,100441.40
2023-03-17T09:42:33.869Z,100440.40
2023-03-17T09:45:33.185Z,100448.60
2023-03-17T09:48:17.273Z,100443.20
2023-03-17T09:51:11.635Z,100434.40
2023-03-17T09:53:42.344Z,100430.80
2023-03-17T09:56:16.725Z,100422.40
2023-03-17T09:59:16.299Z,100423.40
2023-03-17T10:01:43.897Z,100433.80
2023-03-17T10:04:11.812Z,100434.40
2023-03-17T10:06:46.384Z,100429.60
2023-03-17T10:09:41.339Z,100431.20
2023-03-17T10:12:16.753Z,100433.60
2023-03-17T10:15:10.946Z,100427.20
2023-03-17T10:17:42.304Z,100416.00
2023-03-17T10:20:29.845Z,100408.80
2023-03-17T10:23:04.569Z,100406.60
2023-03-17T10:28:32.009Z,100416.20
2023-03-17T10:31:16.055Z,100418.40
2023-03-17T10:33:49.069Z,100422.00
2023-03-17T10:36:31.393Z,100423.40
2023-03-17T10:39:19.546Z,100415.20
2023-03-17T10:42:10.048Z,100410.80
2023-03-17T10:44:54.588Z,100408.40
2023-03-17T10:47:32.373Z,100393.20
2023-03-17T10:50:18.018Z,100376.80
2023-03-17T10:52:48.597Z,100358.40
2023-03-17T10:55:21.104Z,100351.20
2023-03-17T10:57:56.477Z,100349.80
2023-03-17T11:00:26.023Z,100344.20
2023-03-17T11:02:58.588Z,100351.00
2023-03-17T11:05:29.157Z,100355.20
2023-03-17T11:08:20.056Z,100358.40
2023-03-17T11:10:56.507Z,100354.60
2023-03-17T11:13:30.168Z,100347.20
2023-03-17T11:16:21.772Z,100341.80
2023-03-17T11:18:55.389Z,100332.60
2023-03-17T11:21:30.694Z,100336.40
2023-03-17T11:24:25.548Z,100326.40
2023-03-17T11:27:23.647Z,100329.60
2023-03-17T11:30:27.814Z,100320.40
2023-03-17T11:33:33.152Z,100320.40
2023-03-17T11:36:30.094Z,100318.40
2023-03-17T11:39:36.036Z,100308.80
2023-03-17T11:42:23.357Z,100313.00
2023-03-17T11:44:56.209Z,100307.40
2023-03-17T11:47:36.358Z,100307.40
2023-03-17T11:50:35.085Z,100298.20
2023-03-17T11:53:44.763Z,100287.40
2023-03-17T11:56:30.320Z,100281.20
2023-03-17T11:59:13.547Z,100271.60
2023-03-17T12:02:00.964Z,100271.60
2023-03-17T12:04:51.404Z,100266.80
2023-03-17T12:07:36.904Z,100264.20
2023-03-17T12:10:24.023Z,100271.00
2023-03-17T12:13:39.519Z,100253.20
2023-03-17T12:16:28.945Z,100246.80
2023-03-17T12:19:12.571Z,100250.00
2023-03-17T12:22:10.262Z,100243.40
2023-03-17T12:25:05.368Z,100243.00
2023-03-17T12:27:42.463Z,100240.60
2023-03-17T12:30:35.997Z,100239.60
2023-03-17T12:33:53.470Z,100239.40
2023-03-17T12:36:22.142Z,100240.00
2023-03-17T12:39:05.081Z,100235.40
2023-03-17T12:42:20.162Z,100229.00
2023-03-17T12:45:07.622Z,100229.40
2023-03-17T12:48:08.373Z,100230.60
2023-03-17T13:21:46.751Z,100191.00
2023-03-17T13:24:51.152Z,100192.20
2023-03-17T13:27:31.953Z,100190.60
2023-03-17T13:30:22.250Z,100187.40
2023-03-17T13:33:23.190Z,100187.80
2023-03-17T13:36:15.871Z,100184.00
2023-03-17T13:39:20.069Z,100174.00
2023-03-17T13:42:18.005Z,100176.20
2023-03-17T13:45:20.096Z,100180.00
2023-03-17T13:47:49.017Z,100187.00
2023-03-17T13:50:32.150Z,100182.40
2023-03-17T13:53:09.918Z,100185.80
2023-03-17T13:56:01.955Z,100188.80
2023-03-17T13:58:48.700Z,100190.00
2023-03-17T14:01:18.012Z,100188.00
2023-03-17T14:03:55.202Z,100183.40
2023-03-17T14:06:30.815Z,100186.20
2023-03-17T14:09:07.785Z,100186.20
2023-03-17T14:11:40.746Z,100181.20
2023-03-17T14:14:33.263Z,100185.60
2023-03-17T14:17:29.698Z,100180.80
2023-03-17T14:20:23.067Z,100175.80
2023-03-17T14:22:59.695Z,100185.60
2023-03-17T14:25:33.523Z,100174.80
2023-03-17T14:28:22.175Z,100164.60
2023-03-17T14:30:54.413Z,100158.20
2023-03-17T14:33:28.377Z,100156.00
2023-03-17T14:36:01.906Z,100156.00
2023-03-17T14:38:55.400Z,100149.00
2023-03-17T14:41:28.090Z,100147.40
2023-03-17T14:44:01.136Z,100142.00
2023-03-17T14:46:38.381Z,100133.60
2023-03-17T14:49:20.520Z,100133.00
2023-03-17T14:51:53.002Z,100132.40
2023-03-17T14:54:26.629Z,100131.80
2023-03-17T14:57:06.978Z,100129.00
2023-03-17T14:59:38.422Z,100125.60
2023-03-17T15:02:37.989Z,100120.60
2023-03-17T15:05:24.928Z,100118.60
2023-03-17T15:07:52.557Z,100118.40
2023-03-17T15:10:34.496Z,100112.60
2023-03-17T15:13:05.863Z,100108.60
2023-03-17T15:15:37.359Z,100115.20
2023-03-17T15:18:12.656Z,100108.20
2023-03-17T15:20:44.104Z,100108.80
2023-03-17T15:23:21.677Z,100106.80
2023-03-17T15:25:57.726Z,100108.80
2023-03-17T15:28:30.857Z,100107.80
2023-03-17T15:31:13.379Z,100107.00
2023-03-17T15:33:41.638Z,100107.40
2023-03-17T15:36:31.269Z,100108.20
2023-03-17T15:39:01.665Z,100108.80
2023-03-17T15:41:28.737Z,100108.80
2023-03-17T15:43:56.406Z,100107.80
2023-03-17T15:46:33.174Z,100109.20
2023-03-17T15:49:00.397Z,100115.80
2023-03-17T15:51:27.538Z,100111.60
2023-03-17T15:53:54.968Z,100116.80
2023-03-17T15:56:22.346Z,100119.00
2023-03-17T16:01:33.455Z,100111.60
2023-03-17T16:04:01.366Z,100110.60
2023-03-17T16:06:28.421Z,100115.40
2023-03-17T16:08:55.859Z,100110.80
2023-03-17T16:11:27.572Z,100111.40
2023-03-17T16:13:57.597Z,100106.40
2023-03-17T16:16:41.950Z,100108.60
2023-03-17T16:19:22.160Z,100111.40
2023-03-17T16:21:49.304Z,100113.80
2023-03-17T16:24:21.150Z,100117.40
2023-03-17T16:26:49.482Z,100117.20
2023-03-17T16:29:19.421Z,100119.40
2023-03-17T16:31:49.441Z,100116.00
2023-03-17T16:34:30.973Z,100120.20
2023-03-17T16:36:57.964Z,100121.00
2023-03-17T16:39:25.801Z,100118.40
2023-03-17T16:41:52.875Z,100115.60
2023-03-17T16:44:21.377Z,100105.40
2023-03-17T16:46:48.692Z,100106.60
2023-03-17T16:49:19.257Z,100105.80
2023-03-17T16:51:46.197Z,100101.00
2023-03-17T16:54:13.474Z,100101.40
2023-03-17T16:56:41.875Z,100105.20
2023-03-17T16:59:21.098Z,100110.60
2023-03-17T17:01:47.901Z,100115.60
2023-03-17T17:04:15.001Z,100119.00
2023-03-17T17:06:41.823Z,100126.60
2023-03-17T17:09:23.881Z,100124.60
2023-03-17T17:11:50.846Z,100127.80
2023-03-17T17:14:17.802Z,100127.80
2023-03-17T17:16:46.298Z,100129.80
2023-03-17T17:21:58.668Z,100131.80
2023-03-17T17:24:25.773Z,100135.20
2023-03-17T17:26:52.746Z,100135.40
2023-03-17T17:29:20.041Z,100134.20
2023-03-17T17:31:47.214Z,100132.40
2023-03-17T17:37:25.276Z,100143.20
2023-03-17T17:39:52.896Z,100146.00
2023-03-17T17:42:20.806Z,100146.40
2023-03-17T17:45:02.456Z,100145.80
2023-03-17T17:47:32.150Z,100141.20
2023-03-17T17:50:00.160Z,100147.00
2023-03-17T17:52:27.105Z,100141.40
2023-03-17T17:54:54.109Z,100139.40
2023-03-17T17:57:21.060Z,100133.80
2023-03-17T17:59:47.991Z,100129.60
2023-03-17T18:02:15.123Z,100128.80
2023-03-17T18:04:42.208Z,100128.40
2023-03-17T18:07:09.403Z,100128.20
2023-03-17T18:09:36.280Z,100132.20
2023-03-17T18:12:04.130Z,100132.60
2023-03-17T18:14:31.441Z,100125.80
2023-03-17T18:16:58.436Z,100126.20
2023-03-17T18:19:25.571Z,100116.00
2023-03-17T18:21:52.419Z,100117.00
2023-03-17T18:24:19.721Z,100115.80
2023-03-17T18:29:28.273Z,100113.40
2023-03-17T18:31:55.500Z,100118.80
2023-03-17T18:34:29.321Z,100113.60
2023-03-17T18:37:00.263Z,100118.20
2023-03-17T18:39:29.251Z,100114.80
2023-03-17T18:41:56.555Z,100117.60
2023-03-17T18:44:24.523Z,100114.80
2023-03-17T18:46:51.645Z,100114.60
2023-03-17T18:49:18.567Z,100116.20
2023-03-17T18:51:45.534Z,100113.40
2023-03-17T18:54:13.042Z,100115.00
2023-03-17T18:59:36.089Z,100123.80
2023-03-17T19:02:03.330Z,100125.20
2023-03-17T19:04:30.447Z,100128.00
2023-03-17T19:06:57.631Z,100127.40
2023-03-17T19:09:24.896Z,100122.60
2023-03-17T19:11:52.047Z,100117.80
2023-03-17T19:14:18.889Z,100121.20
2023-03-17T19:16:46.198Z,100124.80
2023-03-17T19:19:13.148Z,100125.40
2023-03-17T19:21:39.860Z,100126.20
2023-03-17T19:24:07.947Z,100124.40
2023-03-17T19:26:34.926Z,100120.00
2023-03-17T19:29:16.598Z,100118.20
2023-03-17T19:31:43.802Z,100120.80
2023-03-17T19:34:13.619Z,100116.20
2023-03-17T19:36:45.277Z,100109.80
2023-03-17T19:39:13.953Z,100100.00
2023-03-17T19:41:40.855Z,100094.80
2023-03-17T19:44:07.812Z,100101.00
2023-03-17T19:46:37.091Z,100103.00
2023-03-17T19:49:04.325Z,100104.40
2023-03-17T19:51:32.661Z,100103.60
2023-03-17T19:54:00.182Z,100101.00
2023-03-17T19:56:27.584Z,100103.40
2023-03-17T19:58:55.556Z,100106.60
2023-03-17T20:01:23.076Z,100105.80
2023-03-17T20:03:50.409Z,100104.60
2023-03-17T20:06:17.763Z,100100.00
2023-03-17T20:08:45.479Z,100093.80
2023-03-17T20:11:13.489Z,100092.20
2023-03-17T20:13:40.785Z,100093.00
2023-03-17T20:16:09.006Z,100089.40
2023-03-17T20:18:36.294Z,100083.20
2023-03-17T20:21:07.604Z,100080.00
2023-03-17T20:23:36.172Z,100075.40
2023-03-17T20:26:19.496Z,100074.60
2023-03-17T20:32:04.976Z,100072.60
2023-03-17T20:34:47.253Z,100079.20
2023-03-17T20:37:29.534Z,100070.40
2023-03-17T20:39:57.910Z,100073.20
2023-03-17T20:42:26.636Z,100076.60
2023-03-17T20:44:54.916Z,100075.00
2023-03-17T20:47:23.492Z,100077.60
2023-03-17T20:49:53.346Z,100083.20
2023-03-17T20:52:37.243Z,100077.80
2023-03-17T20:58:16.475Z,100077.80
2023-03-17T21:06:39.870Z,100076.60
2023-03-17T21:09:22.228Z,100077.80
2023-03-17T21:11:51.029Z,100074.20
2023-03-17T21:14:34.250Z,100080.00
2023-03-17T21:17:04.052Z,100078.20
2023-03-17T21:22:43.233Z,100070.80
2023-03-17T21:25:11.826Z,100068.60
2023-03-17T21:27:41.545Z,100064.20
2023-03-17T21:33:20.170Z,100061.00
2023-03-17T21:36:03.356Z,100059.60
2023-03-17T21:38:32.342Z,100058.40
2023-03-17T21:41:33.398Z,100056.60
2023-03-17T21:44:03.579Z,100054.80
2023-03-17T21:46:33.719Z,100052.60
2023-03-17T21:49:17.302Z,100043.60
2023-03-17T21:51:59.765Z,100046.60
2023-03-17T21:54:28.697Z,100037.20
2023-03-17T22:00:11.785Z,100038.60
2023-03-17T22:02:41.928Z,100033.40
2023-03-17T22:05:23.994Z,100039.60
2023-03-17T22:08:06.712Z,100038.60
2023-03-17T22:10:49.167Z,100035.80
2023-03-17T22:13:31.521Z,100031.60
2023-03-17T22:16:16.210Z,100030.40
2023-03-17T22:18:58.580Z,100027.00
2023-03-17T22:21:41.342Z,100031.60
2023-03-17T22:24:10.283Z,100030.80
2023-03-17T22:26:53.202Z,100029.60
2023-03-17T22:29:35.558Z,100029.80
2023-03-17T22:32:04.747Z,100037.40
2023-03-17T22:34:33.889Z,100038.20
2023-03-17T22:37:16.029Z,100030.60
2023-03-17T22:39:44.871Z,100031.00
2023-03-17T22:42:26.810Z,100027.80
2023-03-17T22:45:12.673Z,100021.00
2023-03-17T22:47:56.253Z,100019.40
2023-03-17T22:50:38.393Z,100020.00
2023-03-17T22:53:21.249Z,100026.60
2023-03-17T22:56:04.570Z,100032.20
2023-03-17T22:58:48.137Z,100025.40
2023-03-17T23:03:00.611Z,100024.20
2023-03-17T23:11:49.134Z,100013.00
2023-03-17T23:16:38.576Z,100009.40
2023-03-17T23:20:44.627Z,100015.00
2023-03-17T23:24:00.062Z,100008.60
2023-03-17T23:27:15.689Z,100014.00
2023-03-17T23:44:41.237Z,100003.20
2023-03-17T23:48:06.446Z,99996.20
2023-03-17T23:55:00.041Z,99994.60
2023-03-17T23:59:59.684Z,99996.80
